createdAt,value
2019-02-25T00:00:38.004Z,99.90
2019-02-25T00:03:06.635Z,99.90
2019-02-25T00:05:35.097Z,99.90
2019-02-25T00:08:03.632Z,99.90
2019-02-25T00:10:32.197Z,99.90
2019-02-25T00:13:00.662Z,99.90
2019-02-25T00:15:29.666Z,99.90
2019-02-25T00:17:58.480Z,99.90
2019-02-25T00:20:27.042Z,99.90
2019-02-25T00:22:55.577Z,99.90
2019-02-25T00:25:24.077Z,99.90
2019-02-25T00:27:52.614Z,99.90
2019-02-25T00:30:21.111Z,99.90
2019-02-25T00:32:49.570Z,99.90
2019-02-25T00:35:18.192Z,99.90
2019-02-25T00:37:46.678Z,99.90
2019-02-25T00:40:15.361Z,99.90
2019-02-25T00:42:43.822Z,99.90
2019-02-25T00:45:14.621Z,99.90
2019-02-25T00:47:43.158Z,99.90
2019-02-25T00:50:17.437Z,99.90
2019-02-25T00:52:45.972Z,99.90
2019-02-25T00:55:15.387Z,99.90
2019-02-25T00:57:43.917Z,99.90
2019-02-25T01:00:18.015Z,99.90
2019-02-25T01:02:46.687Z,99.90
2019-02-25T01:05:15.989Z,99.90
2019-02-25T01:07:44.595Z,99.90
2019-02-25T01:10:14.390Z,99.90
2019-02-25T01:12:44.208Z,99.90
2019-02-25T01:15:13.002Z,99.90
2019-02-25T01:17:41.613Z,99.90
2019-02-25T01:20:16.933Z,99.90
2019-02-25T01:22:45.396Z,99.90
2019-02-25T01:25:15.805Z,99.90
2019-02-25T01:27:44.415Z,99.90
2019-02-25T01:30:15.663Z,99.90
2019-02-25T01:32:44.224Z,99.90
2019-02-25T01:35:13.693Z,99.90
2019-02-25T01:37:42.318Z,99.90
2019-02-25T01:40:14.755Z,99.90
2019-02-25T01:42:43.380Z,99.90
2019-02-25T01:45:19.186Z,99.90
2019-02-25T01:47:47.807Z,99.90
2019-02-25T01:50:16.414Z,99.90
2019-02-25T01:52:44.902Z,99.90
2019-02-25T01:55:13.902Z,99.90
2019-02-25T01:57:42.907Z,99.90
2019-02-25T02:00:16.610Z,99.90
2019-02-25T02:02:45.177Z,99.90
2019-02-25T02:05:13.972Z,99.90
2019-02-25T02:07:42.606Z,99.90
2019-02-25T02:10:13.279Z,99.90
2019-02-25T02:12:41.905Z,99.90
2019-02-25T02:15:12.811Z,99.90
2019-02-25T02:17:41.376Z,99.90
2019-02-25T02:20:12.358Z,99.90
2019-02-25T02:22:40.917Z,99.90
2019-02-25T02:25:10.518Z,99.90
2019-02-25T02:27:39.011Z,99.90
2019-02-25T02:30:19.525Z,99.90
2019-02-25T02:32:48.159Z,99.90
2019-02-25T02:35:16.778Z,99.90
2019-02-25T02:37:45.499Z,99.90
2019-02-25T02:40:14.587Z,99.90
2019-02-25T02:42:48.859Z,99.90
2019-02-25T02:45:23.954Z,99.90
2019-02-25T02:47:55.778Z,99.90
2019-02-25T02:50:24.959Z,99.90
2019-02-25T02:52:53.573Z,99.90
2019-02-25T02:55:22.138Z,99.90
2019-02-25T02:57:50.667Z,99.90
2019-02-25T03:00:19.981Z,99.90
2019-02-25T03:02:48.510Z,99.90
2019-02-25T03:05:17.708Z,99.90
2019-02-25T03:07:46.313Z,99.90
2019-02-25T03:10:19.307Z,99.90
2019-02-25T03:12:48.217Z,99.90
2019-02-25T03:15:18.830Z,99.90
2019-02-25T03:17:47.512Z,99.90
2019-02-25T03:20:16.146Z,99.90
2019-02-25T03:22:44.851Z,99.90
2019-02-25T03:25:17.780Z,99.90
2019-02-25T03:27:46.354Z,99.90
2019-02-25T03:30:22.549Z,99.90
2019-02-25T03:32:51.230Z,99.90
2019-02-25T03:35:19.869Z,99.90
2019-02-25T03:37:48.412Z,99.90
2019-02-25T03:40:21.710Z,99.90
2019-02-25T03:42:50.514Z,99.90
2019-02-25T03:45:19.817Z,99.90
2019-02-25T03:47:48.359Z,99.90
2019-02-25T03:50:17.288Z,99.90
2019-02-25T03:52:45.826Z,99.90
2019-02-25T03:55:21.237Z,99.90
2019-02-25T03:57:50.040Z,99.90
2019-02-25T04:00:23.722Z,99.90
2019-02-25T04:02:52.437Z,99.90
2019-02-25T04:05:21.928Z,99.90
2019-02-25T04:07:50.623Z,99.90
2019-02-25T04:10:19.299Z,99.90
2019-02-25T04:12:47.905Z,99.90
2019-02-25T04:15:19.636Z,99.90
2019-02-25T04:17:48.232Z,99.90
2019-02-25T04:20:17.607Z,99.90
2019-02-25T04:22:46.182Z,99.90
2019-02-25T04:25:14.730Z,99.90
2019-02-25T04:27:43.379Z,99.90
2019-02-25T04:30:14.248Z,99.90
2019-02-25T04:32:42.832Z,99.90
2019-02-25T04:35:12.609Z,99.90
2019-02-25T04:37:41.177Z,99.90
2019-02-25T04:40:12.140Z,99.90
2019-02-25T04:42:40.788Z,99.90
2019-02-25T04:45:12.074Z,99.90
2019-02-25T04:47:40.648Z,99.90
2019-02-25T04:50:11.196Z,99.90
2019-02-25T04:52:39.767Z,99.90
2019-02-25T04:55:10.145Z,99.90
2019-02-25T04:57:38.898Z,99.90
2019-02-25T05:00:10.636Z,99.90
2019-02-25T05:02:39.244Z,99.90
2019-02-25T05:05:08.134Z,99.90
2019-02-25T05:07:36.699Z,99.90
2019-02-25T05:10:14.478Z,99.90
2019-02-25T05:12:44.826Z,99.90
2019-02-25T05:15:15.014Z,99.90
2019-02-25T05:17:43.634Z,99.90
2019-02-25T05:20:12.576Z,99.90
2019-02-25T05:22:41.149Z,99.90
2019-02-25T05:25:11.536Z,99.90
2019-02-25T05:27:40.390Z,99.90
2019-02-25T05:30:13.931Z,99.90
2019-02-25T05:32:42.511Z,99.90
2019-02-25T05:35:12.400Z,99.90
2019-02-25T05:37:40.934Z,99.90
2019-02-25T05:40:17.562Z,99.90
2019-02-25T05:42:46.179Z,99.90
2019-02-25T05:45:15.407Z,99.90
2019-02-25T05:47:44.004Z,99.90
2019-02-25T05:50:17.183Z,99.90
2019-02-25T05:52:46.062Z,99.90
2019-02-25T05:55:16.999Z,99.90
2019-02-25T05:57:45.920Z,99.90
2019-02-25T06:00:22.949Z,99.90
2019-02-25T06:02:51.497Z,99.90
2019-02-25T06:05:20.068Z,99.90
2019-02-25T06:07:48.611Z,99.90
2019-02-25T06:10:17.196Z,99.90
2019-02-25T06:12:45.735Z,99.90
2019-02-25T06:15:16.823Z,99.90
2019-02-25T06:17:45.369Z,99.90
2019-02-25T06:20:17.742Z,99.90
2019-02-25T06:22:46.359Z,99.90
2019-02-25T06:25:16.945Z,99.90
2019-02-25T06:27:45.482Z,99.90
2019-02-25T06:30:19.195Z,99.90
2019-02-25T06:32:47.898Z,99.90
2019-02-25T06:35:16.611Z,99.90
2019-02-25T06:37:45.259Z,99.90
2019-02-25T06:40:18.039Z,99.90
2019-02-25T06:42:46.579Z,99.90
2019-02-25T06:45:17.960Z,99.90
2019-02-25T06:47:46.515Z,99.90
2019-02-25T06:50:15.154Z,99.90
2019-02-25T06:52:43.703Z,99.90
2019-02-25T06:55:14.515Z,99.90
2019-02-25T06:57:43.130Z,99.90
2019-02-25T07:00:14.854Z,99.90
2019-02-25T07:02:43.391Z,99.90
2019-02-25T07:05:19.526Z,99.90
2019-02-25T07:07:55.474Z,99.90
2019-02-25T07:10:26.030Z,99.90
2019-02-25T07:12:56.608Z,99.90
2019-02-25T07:15:29.704Z,99.90
2019-02-25T07:17:59.930Z,99.90
2019-02-25T07:20:38.939Z,99.90
2019-02-25T07:23:15.146Z,99.90
2019-02-25T07:25:45.367Z,99.90
2019-02-25T07:28:18.252Z,99.90
2019-02-25T07:30:50.889Z,99.90
2019-02-25T07:33:29.829Z,99.90
2019-02-25T07:36:08.722Z,99.90
2019-02-25T07:38:41.668Z,99.90
2019-02-25T07:41:17.967Z,99.90
2019-02-25T07:44:00.076Z,99.90
2019-02-25T07:46:41.940Z,99.90
2019-02-25T07:49:12.122Z,99.90
2019-02-25T07:51:51.028Z,99.90
2019-02-25T07:54:23.939Z,99.90
2019-02-25T07:56:57.126Z,99.90
2019-02-25T07:59:27.303Z,99.90
2019-02-25T08:02:03.416Z,99.90
2019-02-25T08:04:33.586Z,99.90
2019-02-25T08:07:09.772Z,99.90
2019-02-25T08:09:50.511Z,99.90
2019-02-25T08:12:20.838Z,99.90
2019-02-25T08:14:56.606Z,99.90
2019-02-25T08:17:32.462Z,99.90
2019-02-25T08:20:02.645Z,99.90
2019-02-25T08:22:41.699Z,99.90
2019-02-25T08:25:23.508Z,99.90
2019-02-25T08:28:09.991Z,99.90
2019-02-25T08:30:43.154Z,99.90
2019-02-25T08:33:18.882Z,99.90
2019-02-25T08:36:00.738Z,99.90
2019-02-25T08:38:33.567Z,99.90
2019-02-25T08:41:06.281Z,99.90
2019-02-25T08:43:42.372Z,99.90
2019-02-25T08:46:31.040Z,99.90
2019-02-25T08:49:01.238Z,99.90
2019-02-25T08:51:29.842Z,99.90
2019-02-25T08:53:58.470Z,99.90
2019-02-25T08:56:27.070Z,99.90
2019-02-25T08:58:55.635Z,99.90
2019-02-25T09:01:24.175Z,99.90
2019-02-25T09:03:52.736Z,99.90
2019-02-25T09:06:21.274Z,99.90
2019-02-25T09:08:49.850Z,99.90
2019-02-25T09:11:18.391Z,99.90
2019-02-25T09:13:46.998Z,99.90
2019-02-25T09:16:15.794Z,99.90
2019-02-25T09:18:44.330Z,99.90
2019-02-25T09:21:12.893Z,99.90
2019-02-25T09:23:41.505Z,99.90
2019-02-25T09:26:11.889Z,99.90
2019-02-25T09:28:40.301Z,99.90
2019-02-25T09:31:08.767Z,99.40
2019-02-25T09:33:37.298Z,99.20
2019-02-25T09:36:05.874Z,99.90
2019-02-25T09:38:34.419Z,99.30
2019-02-25T09:41:03.004Z,96.60
2019-02-25T09:43:31.535Z,95.70
2019-02-25T09:46:00.026Z,95.30
2019-02-25T09:48:28.496Z,97.40
2019-02-25T09:50:57.066Z,96.20
2019-02-25T09:53:25.531Z,97.30
2019-02-25T09:55:54.123Z,97.30
2019-02-25T09:58:22.655Z,96.50
2019-02-25T10:00:51.196Z,93.40
2019-02-25T10:03:19.782Z,92.30
2019-02-25T10:05:48.246Z,90.20
2019-02-25T10:08:17.122Z,87.70
2019-02-25T10:10:45.664Z,90.10
2019-02-25T10:13:15.588Z,87.10
2019-02-25T10:15:44.386Z,86.10
2019-02-25T10:18:12.973Z,83.50
2019-02-25T10:20:41.511Z,82.90
2019-02-25T10:23:10.083Z,81.10
2019-02-25T10:25:38.923Z,76.90
2019-02-25T10:28:07.989Z,77.10
2019-02-25T10:30:36.492Z,78.30
2019-02-25T10:33:05.066Z,78.90
2019-02-25T10:35:33.603Z,78.40
2019-02-25T10:38:03.219Z,73.00
2019-02-25T10:40:31.953Z,74.90
2019-02-25T10:43:00.594Z,72.40
2019-02-25T10:45:29.139Z,71.80
2019-02-25T10:47:58.753Z,70.50
2019-02-25T10:50:28.804Z,68.20
2019-02-25T10:53:03.416Z,66.00
2019-02-25T10:55:36.898Z,66.90
2019-02-25T10:58:08.095Z,67.40
2019-02-25T11:00:37.814Z,66.50
2019-02-25T11:03:07.142Z,67.80
2019-02-25T11:05:36.084Z,64.50
2019-02-25T11:08:07.395Z,64.40
2019-02-25T11:10:41.107Z,65.90
2019-02-25T11:13:09.646Z,64.80
2019-02-25T11:15:40.212Z,64.20
2019-02-25T11:18:09.502Z,61.60
2019-02-25T11:20:38.118Z,57.00
2019-02-25T11:23:06.832Z,58.00
2019-02-25T11:25:35.408Z,61.70
2019-02-25T11:28:05.379Z,61.20
2019-02-25T11:30:34.336Z,59.10
2019-02-25T11:33:02.871Z,59.70
2019-02-25T11:35:31.455Z,58.70
2019-02-25T11:38:01.736Z,55.20
2019-02-25T11:40:31.207Z,54.70
2019-02-25T11:43:00.407Z,54.50
2019-02-25T11:45:28.986Z,54.70
2019-02-25T11:47:57.563Z,53.40
2019-02-25T11:50:26.509Z,51.60
2019-02-25T11:52:54.977Z,51.30
2019-02-25T11:55:23.618Z,52.50
2019-02-25T11:57:52.166Z,53.80
2019-02-25T12:00:26.195Z,52.60
2019-02-25T12:02:54.806Z,49.80
2019-02-25T12:05:23.396Z,50.10
2019-02-25T12:07:51.931Z,50.70
2019-02-25T12:10:20.589Z,50.00
2019-02-25T12:12:49.134Z,49.90
2019-02-25T12:15:23.071Z,48.20
2019-02-25T12:17:51.650Z,49.10
2019-02-25T12:20:20.266Z,48.50
2019-02-25T12:22:48.849Z,48.50
2019-02-25T12:25:21.743Z,48.10
2019-02-25T12:27:50.321Z,48.40
2019-02-25T12:30:20.589Z,49.00
2019-02-25T12:32:49.251Z,49.60
2019-02-25T12:35:17.800Z,48.50
2019-02-25T12:37:46.497Z,48.00
2019-02-25T12:40:17.014Z,50.50
2019-02-25T12:42:45.590Z,50.40
2019-02-25T12:45:15.340Z,49.70
2019-02-25T12:47:44.105Z,49.40
2019-02-25T12:50:14.951Z,50.80
2019-02-25T12:52:43.563Z,50.30
2019-02-25T12:55:14.157Z,50.70
2019-02-25T12:57:42.806Z,51.60
2019-02-25T13:00:16.564Z,50.00
2019-02-25T13:02:45.165Z,51.20
2019-02-25T13:05:17.802Z,51.70
2019-02-25T13:07:46.348Z,51.20
2019-02-25T13:10:16.271Z,53.30
2019-02-25T13:12:44.815Z,51.90
2019-02-25T13:15:15.594Z,52.20
2019-02-25T13:17:44.134Z,51.20
2019-02-25T13:20:16.171Z,52.10
2019-02-25T13:22:44.783Z,52.50
2019-02-25T13:25:24.528Z,51.80
2019-02-25T13:27:54.362Z,50.50
2019-02-25T13:30:23.284Z,51.40
2019-02-25T13:32:51.822Z,51.30
2019-02-25T13:35:20.466Z,51.70
2019-02-25T13:37:49.013Z,51.30
2019-02-25T13:40:18.391Z,50.60
2019-02-25T13:42:46.984Z,50.30
2019-02-25T13:45:22.760Z,51.50
2019-02-25T13:47:51.368Z,51.60
2019-02-25T13:50:20.031Z,50.80
2019-02-25T13:52:49.055Z,50.50
2019-02-25T13:55:22.050Z,51.30
2019-02-25T13:57:50.623Z,51.30
2019-02-25T14:00:27.448Z,50.70
2019-02-25T14:02:56.079Z,51.90
2019-02-25T14:05:24.952Z,51.50
2019-02-25T14:07:53.596Z,51.40
2019-02-25T14:10:22.131Z,52.70
2019-02-25T14:12:51.095Z,50.80
2019-02-25T14:15:21.780Z,50.30
2019-02-25T14:17:50.440Z,51.30
2019-02-25T14:20:25.022Z,51.70
2019-02-25T14:22:53.649Z,52.00
2019-02-25T14:25:29.545Z,51.40
2019-02-25T14:27:58.618Z,50.90
2019-02-25T14:30:32.639Z,50.90
2019-02-25T14:33:00.597Z,51.80
2019-02-25T14:35:30.883Z,52.40
2019-02-25T14:38:07.315Z,51.90
2019-02-25T14:40:32.699Z,50.90
2019-02-25T14:43:04.018Z,51.70
2019-02-25T14:45:34.337Z,52.40
2019-02-25T14:48:03.171Z,52.50
2019-02-25T14:50:32.379Z,51.70
2019-02-25T14:53:03.213Z,51.50
2019-02-25T14:55:31.412Z,51.90
2019-02-25T14:58:04.864Z,51.30
2019-02-25T15:00:35.321Z,51.60
2019-02-25T15:03:04.287Z,52.00
2019-02-25T15:05:32.868Z,52.50
2019-02-25T15:08:01.598Z,53.30
2019-02-25T15:10:31.614Z,52.80
2019-02-25T15:13:02.111Z,53.20
2019-02-25T15:15:31.042Z,53.00
2019-02-25T15:17:59.656Z,54.20
2019-02-25T15:20:28.960Z,53.80
2019-02-25T15:22:57.595Z,54.40
2019-02-25T15:25:29.159Z,54.80
2019-02-25T15:27:56.422Z,55.20
2019-02-25T15:30:30.780Z,55.40
2019-02-25T15:33:00.829Z,55.60
2019-02-25T15:35:32.458Z,55.00
2019-02-25T15:38:01.123Z,55.00
2019-02-25T15:40:29.794Z,55.70
2019-02-25T15:43:10.400Z,56.10
2019-02-25T15:45:40.677Z,56.20
2019-02-25T15:48:14.247Z,56.30
2019-02-25T15:50:46.056Z,57.10
2019-02-25T15:53:15.946Z,57.70
2019-02-25T15:55:43.885Z,58.30
2019-02-25T15:58:12.658Z,58.40
2019-02-25T16:00:43.381Z,58.50
2019-02-25T16:03:15.764Z,58.70
2019-02-25T16:05:44.828Z,58.10
2019-02-25T16:08:17.212Z,58.40
2019-02-25T16:10:46.991Z,59.20
2019-02-25T16:13:15.367Z,59.50
2019-02-25T16:15:44.089Z,59.30
2019-02-25T16:18:14.088Z,60.00
2019-02-25T16:20:45.923Z,61.00
2019-02-25T16:23:13.858Z,60.70
2019-02-25T16:25:42.738Z,61.20
2019-02-25T16:28:14.443Z,62.80
2019-02-25T16:30:42.398Z,63.40
2019-02-25T16:33:14.329Z,64.20
2019-02-25T16:35:43.539Z,65.10
2019-02-25T16:38:12.468Z,66.50
2019-02-25T16:40:41.398Z,66.10
2019-02-25T16:43:12.689Z,67.40
2019-02-25T16:45:42.536Z,67.10
2019-02-25T16:48:11.454Z,67.60
2019-02-25T16:50:42.178Z,67.80
2019-02-25T16:53:10.981Z,70.00
2019-02-25T16:55:42.798Z,71.50
2019-02-25T16:58:13.359Z,72.50
2019-02-25T17:00:42.625Z,74.20
2019-02-25T17:03:13.591Z,76.10
2019-02-25T17:05:42.839Z,78.00
2019-02-25T17:08:12.885Z,82.50
2019-02-25T17:10:41.467Z,84.30
2019-02-25T17:13:10.850Z,87.90
2019-02-25T17:15:40.367Z,91.10
2019-02-25T17:18:09.349Z,92.40
2019-02-25T17:20:37.909Z,93.80
2019-02-25T17:23:09.585Z,93.70
2019-02-25T17:25:38.442Z,94.40
2019-02-25T17:28:08.144Z,96.00
2019-02-25T17:30:38.569Z,97.30
2019-02-25T17:33:10.100Z,98.20
2019-02-25T17:35:39.123Z,99.80
2019-02-25T17:38:07.734Z,99.90
2019-02-25T17:40:36.306Z,99.90
2019-02-25T17:43:05.054Z,99.90
2019-02-25T17:45:34.572Z,99.90
2019-02-25T17:48:08.108Z,99.90
2019-02-25T17:50:36.560Z,99.90
2019-02-25T17:53:07.213Z,99.90
2019-02-25T17:55:36.325Z,99.90
2019-02-25T17:58:05.242Z,99.90
2019-02-25T18:00:39.347Z,99.90
2019-02-25T18:03:08.499Z,99.90
2019-02-25T18:05:38.729Z,99.90
2019-02-25T18:08:10.570Z,99.90
2019-02-25T18:10:39.467Z,99.90
2019-02-25T18:13:09.951Z,99.90
2019-02-25T18:15:38.343Z,99.90
2019-02-25T18:18:09.255Z,99.90
2019-02-25T18:20:38.504Z,99.90
2019-02-25T18:23:07.808Z,99.90
2019-02-25T18:25:37.725Z,99.90
2019-02-25T18:28:08.522Z,99.90
2019-02-25T18:30:37.894Z,99.90
2019-02-25T18:33:07.130Z,99.90
2019-02-25T18:35:38.215Z,99.90
2019-02-25T18:38:08.954Z,99.90
2019-02-25T18:40:38.185Z,99.90
2019-02-25T18:43:07.135Z,99.90
2019-02-25T18:45:37.810Z,99.90
2019-02-25T18:48:08.111Z,99.90
2019-02-25T18:50:36.715Z,99.90
2019-02-25T18:53:07.414Z,99.90
2019-02-25T18:55:36.119Z,99.90
2019-02-25T18:58:07.969Z,99.90
2019-02-25T19:00:40.105Z,99.90
2019-02-25T19:03:09.390Z,99.90
2019-02-25T19:05:38.316Z,99.90
2019-02-25T19:08:20.309Z,99.90
2019-02-25T19:10:50.311Z,99.90
2019-02-25T19:13:20.943Z,99.90
2019-02-25T19:15:50.757Z,99.90
2019-02-25T19:18:20.121Z,99.90
2019-02-25T19:20:49.081Z,99.90
2019-02-25T19:23:17.988Z,99.90
2019-02-25T19:25:46.663Z,99.90
2019-02-25T19:28:18.811Z,99.90
2019-02-25T19:30:46.091Z,99.90
2019-02-25T19:33:19.253Z,99.90
2019-02-25T19:35:46.126Z,99.90
2019-02-25T19:38:15.877Z,99.90
2019-02-25T19:40:46.615Z,99.90
2019-02-25T19:43:15.803Z,99.90
2019-02-25T19:45:45.470Z,99.90
2019-02-25T19:48:14.207Z,99.90
2019-02-25T19:50:50.717Z,99.90
2019-02-25T19:53:15.151Z,99.90
2019-02-25T19:55:45.557Z,99.90
2019-02-25T19:58:13.768Z,99.90
2019-02-25T20:00:44.368Z,99.90
2019-02-25T20:03:12.974Z,99.90
2019-02-25T20:05:43.730Z,99.90
2019-02-25T20:08:12.771Z,99.90
2019-02-25T20:10:41.416Z,99.90
2019-02-25T20:13:09.951Z,99.90
2019-02-25T20:15:41.671Z,99.90
2019-02-25T20:18:09.948Z,99.90
2019-02-25T20:20:41.231Z,99.90
2019-02-25T20:23:09.617Z,99.90
2019-02-25T20:25:38.326Z,99.90
2019-02-25T20:28:07.006Z,99.90
2019-02-25T20:30:35.714Z,99.90
2019-02-25T20:33:06.326Z,99.90
2019-02-25T20:35:34.697Z,99.90
2019-02-25T20:38:05.135Z,99.90
2019-02-25T20:40:33.823Z,99.90
2019-02-25T20:43:03.202Z,99.90
2019-02-25T20:45:35.374Z,99.90
2019-02-25T20:48:05.326Z,99.90
2019-02-25T20:50:34.342Z,99.90
2019-02-25T20:53:05.742Z,99.90
2019-02-25T20:55:34.505Z,99.90
2019-02-25T20:58:03.284Z,99.90
2019-02-25T21:00:34.842Z,99.90
2019-02-25T21:03:02.037Z,99.90
2019-02-25T21:05:30.674Z,99.90
2019-02-25T21:08:00.050Z,99.90
2019-02-25T21:10:32.258Z,99.90
2019-02-25T21:13:02.126Z,99.90
2019-02-25T21:15:33.398Z,99.90
2019-02-25T21:18:02.480Z,99.90
2019-02-25T21:20:31.496Z,99.90
2019-02-25T21:23:03.568Z,99.90
2019-02-25T21:25:31.378Z,99.90
2019-02-25T21:28:02.281Z,99.90
2019-02-25T21:30:30.934Z,99.90
2019-02-25T21:32:59.547Z,99.90
2019-02-25T21:35:30.165Z,99.90
2019-02-25T21:37:58.308Z,99.90
2019-02-25T21:40:29.438Z,99.90
2019-02-25T21:42:57.107Z,99.90
2019-02-25T21:45:27.523Z,99.90
2019-02-25T21:47:56.643Z,99.90
2019-02-25T21:50:28.415Z,99.90
2019-02-25T21:52:56.298Z,99.90
2019-02-25T21:55:27.507Z,99.90
2019-02-25T21:57:57.231Z,99.90
2019-02-25T22:00:27.170Z,99.90
2019-02-25T22:02:56.350Z,99.90
2019-02-25T22:05:25.146Z,99.90
2019-02-25T22:07:55.333Z,99.90
2019-02-25T22:10:23.898Z,99.90
2019-02-25T22:12:52.458Z,99.90
2019-02-25T22:15:23.787Z,99.90
2019-02-25T22:17:53.361Z,99.90
2019-02-25T22:20:24.895Z,99.90
2019-02-25T22:22:56.746Z,99.90
2019-02-25T22:25:23.207Z,99.90
2019-02-25T22:27:51.780Z,99.90
2019-02-25T22:30:39.659Z,99.90
2019-02-25T22:33:22.525Z,99.90
2019-02-25T22:35:40.563Z,99.90
2019-02-25T22:38:08.631Z,99.90
2019-02-25T22:40:38.842Z,99.90
2019-02-25T22:43:09.859Z,99.90
2019-02-25T22:45:39.701Z,99.90
2019-02-25T22:48:11.606Z,99.90
2019-02-25T22:50:38.537Z,99.90
2019-02-25T22:53:08.798Z,99.90
2019-02-25T22:55:41.880Z,99.90
2019-02-25T22:58:08.810Z,99.90
2019-02-25T23:00:45.234Z,99.90
2019-02-25T23:03:15.471Z,99.90
2019-02-25T23:05:45.991Z,99.90
2019-02-25T23:08:15.483Z,99.90
2019-02-25T23:10:46.775Z,99.90
2019-02-25T23:13:14.736Z,99.90
2019-02-25T23:15:44.696Z,99.90
2019-02-25T23:18:14.823Z,99.90
2019-02-25T23:20:44.178Z,99.90
2019-02-25T23:23:12.662Z,99.90
2019-02-25T23:25:41.127Z,99.90
2019-02-25T23:28:09.691Z,99.90
2019-02-25T23:30:39.669Z,99.90
2019-02-25T23:33:10.130Z,99.90
2019-02-25T23:35:40.792Z,99.90
2019-02-25T23:38:08.700Z,99.90
2019-02-25T23:40:38.268Z,99.90
2019-02-25T23:43:09.541Z,99.90
2019-02-25T23:45:38.332Z,99.90
2019-02-25T23:48:08.951Z,99.90
2019-02-25T23:50:38.027Z,99.90
2019-02-25T23:53:06.634Z,99.90
2019-02-25T23:55:35.129Z,99.90
2019-02-25T23:58:07.864Z,99.90
